createdAt,value
2024-03-02T00:02:15.117Z,9.90
2024-03-02T00:05:02.680Z,9.80
2024-03-02T00:07:56.760Z,9.80
2024-03-02T00:10:44.340Z,9.70
2024-03-02T00:13:32.644Z,9.70
2024-03-02T00:16:21.403Z,9.60
2024-03-02T00:19:11.230Z,9.60
2024-03-02T00:21:58.885Z,9.60
2024-03-02T00:24:46.416Z,9.60
2024-03-02T00:27:34.124Z,9.60
2024-03-02T00:30:54.121Z,9.60
2024-03-02T00:33:44.427Z,9.60
2024-03-02T00:36:32.024Z,9.60
2024-03-02T00:39:20.435Z,9.60
2024-03-02T00:42:08.564Z,9.60
2024-03-02T00:44:55.803Z,9.60
2024-03-02T00:47:43.252Z,9.60
2024-03-02T00:50:33.741Z,9.60
2024-03-02T00:53:25.721Z,9.60
2024-03-02T00:56:14.009Z,9.60
2024-03-02T00:59:01.368Z,9.50
2024-03-02T01:01:50.034Z,9.50
2024-03-02T01:04:37.468Z,9.50
2024-03-02T01:07:26.269Z,9.40
2024-03-02T01:10:14.148Z,9.50
2024-03-02T01:13:01.751Z,9.40
2024-03-02T01:15:49.229Z,9.40
2024-03-02T01:18:36.726Z,9.50
2024-03-02T01:21:23.951Z,9.50
2024-03-02T01:24:12.738Z,9.50
2024-03-02T01:27:00.331Z,9.50
2024-03-02T01:29:47.613Z,9.40
2024-03-02T01:32:35.118Z,9.40
2024-03-02T01:35:22.412Z,9.30
2024-03-02T01:38:09.683Z,9.20
2024-03-02T01:40:59.656Z,9.10
2024-03-02T01:43:47.079Z,9.10
2024-03-02T01:46:34.520Z,9.00
2024-03-02T01:49:22.000Z,9.00
2024-03-02T01:52:09.336Z,9.00
2024-03-02T01:54:56.972Z,8.90
2024-03-02T01:57:46.488Z,9.00
2024-03-02T02:00:33.949Z,9.00
2024-03-02T02:03:21.401Z,8.90
2024-03-02T02:06:10.011Z,8.90
2024-03-02T02:08:57.540Z,8.90
2024-03-02T02:11:45.263Z,8.90
2024-03-02T02:14:33.867Z,8.90
2024-03-02T02:17:21.905Z,8.90
2024-03-02T02:20:10.191Z,8.80
2024-03-02T02:23:00.834Z,8.80
2024-03-02T02:25:48.211Z,8.80
2024-03-02T02:28:35.726Z,8.70
2024-03-02T02:31:23.234Z,8.70
2024-03-02T02:34:11.172Z,8.70
2024-03-02T02:36:58.643Z,8.70
2024-03-02T02:39:47.815Z,8.60
2024-03-02T02:42:35.319Z,8.60
2024-03-02T02:45:22.935Z,8.50
2024-03-02T02:48:10.606Z,8.40
2024-03-02T02:50:57.731Z,8.30
2024-03-02T02:53:45.138Z,8.10
2024-03-02T02:56:33.965Z,8.00
2024-03-02T02:59:21.540Z,8.00
2024-03-02T03:02:09.290Z,8.00
2024-03-02T03:04:58.689Z,8.00
2024-03-02T03:07:46.532Z,7.90
2024-03-02T03:10:34.461Z,7.80
2024-03-02T03:13:23.901Z,7.70
2024-03-02T03:16:11.259Z,7.60
2024-03-02T03:18:58.955Z,7.60
2024-03-02T03:21:46.301Z,7.50
2024-03-02T03:24:34.480Z,7.40
2024-03-02T03:27:22.162Z,7.50
2024-03-02T03:30:12.189Z,7.50
2024-03-02T03:32:59.559Z,7.60
2024-03-02T03:35:46.887Z,7.70
2024-03-02T03:38:34.141Z,7.80
2024-03-02T03:41:21.779Z,7.80
2024-03-02T03:44:09.235Z,7.90
2024-03-02T03:46:58.048Z,8.00
2024-03-02T03:49:45.656Z,8.00
2024-03-02T03:52:33.129Z,8.10
2024-03-02T03:55:20.291Z,8.10
2024-03-02T03:58:07.507Z,8.20
2024-03-02T04:00:55.058Z,8.20
2024-03-02T04:03:43.945Z,8.30
2024-03-02T04:06:31.290Z,8.20
2024-03-02T04:09:18.576Z,8.20
2024-03-02T04:12:06.571Z,8.20
2024-03-02T04:14:54.446Z,8.20
2024-03-02T04:17:41.841Z,8.10
2024-03-02T04:20:30.901Z,8.10
2024-03-02T04:23:18.312Z,8.10
2024-03-02T04:26:06.573Z,8.10
2024-03-02T04:28:53.929Z,8.10
2024-03-02T04:31:41.383Z,8.10
2024-03-02T04:34:28.675Z,8.10
2024-03-02T04:37:17.563Z,8.10
2024-03-02T04:40:08.980Z,8.10
2024-03-02T04:42:56.741Z,8.10
2024-03-02T04:45:45.007Z,8.10
2024-03-02T04:48:33.204Z,8.00
2024-03-02T04:51:20.622Z,8.00
2024-03-02T04:54:09.398Z,8.00
2024-03-02T04:56:56.688Z,8.00
2024-03-02T04:59:44.378Z,7.90
2024-03-02T05:02:31.453Z,7.90
2024-03-02T05:05:18.751Z,7.90
2024-03-02T05:08:06.723Z,7.90
2024-03-02T05:10:55.851Z,7.90
2024-03-02T05:13:42.994Z,7.90
2024-03-02T05:16:30.425Z,7.90
2024-03-02T05:19:17.745Z,7.80
2024-03-02T05:22:05.623Z,7.70
2024-03-02T05:24:52.928Z,7.60
2024-03-02T05:27:42.201Z,7.60
2024-03-02T05:30:29.640Z,7.50
2024-03-02T05:33:17.077Z,7.40
2024-03-02T05:36:04.618Z,7.40
2024-03-02T05:38:51.998Z,7.40
2024-03-02T05:41:40.099Z,7.30
2024-03-02T05:44:29.050Z,7.30
2024-03-02T05:47:16.320Z,7.30
2024-03-02T05:50:04.946Z,7.30
2024-03-02T05:52:52.360Z,7.30
2024-03-02T05:55:39.781Z,7.30
2024-03-02T05:58:39.107Z,7.30
2024-03-02T06:01:29.866Z,7.30
2024-03-02T06:04:17.355Z,7.30
2024-03-02T06:07:05.293Z,7.30
2024-03-02T06:09:53.677Z,7.30
2024-03-02T06:12:41.220Z,7.40
2024-03-02T06:15:28.495Z,7.30
2024-03-02T06:18:17.354Z,7.40
2024-03-02T06:21:05.213Z,7.40
2024-03-02T06:23:52.460Z,7.40
2024-03-02T06:26:40.746Z,7.40
2024-03-02T06:29:28.301Z,7.50
2024-03-02T06:32:15.625Z,7.50
2024-03-02T06:35:05.957Z,7.50
2024-03-02T06:37:53.467Z,7.50
2024-03-02T06:40:41.822Z,7.60
2024-03-02T06:43:29.022Z,7.60
2024-03-02T06:46:16.784Z,7.70
2024-03-02T06:49:05.353Z,7.80
2024-03-02T06:51:54.519Z,7.80
2024-03-02T06:54:41.739Z,7.90
2024-03-02T06:57:29.096Z,8.00
2024-03-02T07:00:18.996Z,8.10
2024-03-02T07:03:06.667Z,8.20
2024-03-02T07:05:53.870Z,8.30
2024-03-02T07:08:42.755Z,8.50
2024-03-02T07:11:30.044Z,8.60
2024-03-02T07:14:17.084Z,8.80
2024-03-02T07:17:04.563Z,8.90
2024-03-02T07:19:52.195Z,9.00
2024-03-02T07:22:42.400Z,9.20
2024-03-02T07:28:23.277Z,9.30
2024-03-02T07:31:11.079Z,9.40
2024-03-02T07:33:58.788Z,9.50
2024-03-02T07:36:46.099Z,9.60
2024-03-02T07:39:33.508Z,9.80
2024-03-02T07:42:22.266Z,10.10
2024-03-02T07:45:10.098Z,10.40
2024-03-02T07:47:57.743Z,10.50
2024-03-02T07:50:45.715Z,10.60
2024-03-02T07:53:33.227Z,10.50
2024-03-02T07:56:23.418Z,10.50
2024-03-02T07:59:12.286Z,10.60
2024-03-02T08:02:00.096Z,10.70
2024-03-02T08:04:48.598Z,10.80
2024-03-02T08:07:36.128Z,10.90
2024-03-02T08:10:23.809Z,10.90
2024-03-02T08:13:11.299Z,11.00
2024-03-02T08:16:00.323Z,11.20
2024-03-02T08:18:48.034Z,11.20
2024-03-02T08:21:36.594Z,11.40
2024-03-02T08:24:24.258Z,11.50
2024-03-02T08:27:11.665Z,11.60
2024-03-02T08:29:59.189Z,11.80
2024-03-02T08:32:48.611Z,12.00
2024-03-02T08:35:37.392Z,12.30
2024-03-02T08:38:24.965Z,12.40
2024-03-02T08:41:14.179Z,12.50
2024-03-02T08:44:01.640Z,12.60
2024-03-02T08:46:48.816Z,12.80
2024-03-02T08:49:37.591Z,13.00
2024-03-02T08:52:24.748Z,13.10
2024-03-02T08:55:12.428Z,13.30
2024-03-02T08:57:59.416Z,13.60
2024-03-02T09:00:46.885Z,13.70
2024-03-02T09:03:35.116Z,13.80
2024-03-02T09:06:23.568Z,13.90
2024-03-02T09:09:10.683Z,13.90
2024-03-02T09:11:58.985Z,14.10
2024-03-02T09:14:46.221Z,14.10
2024-03-02T09:17:33.990Z,14.20
2024-03-02T09:20:21.340Z,14.20
2024-03-02T09:23:09.469Z,14.20
2024-03-02T09:25:56.747Z,14.10
2024-03-02T09:28:44.928Z,14.10
2024-03-02T09:31:31.991Z,14.10
2024-03-02T09:34:19.191Z,14.20
2024-03-02T09:37:09.401Z,14.20
2024-03-02T09:39:57.993Z,14.30
2024-03-02T09:42:45.506Z,14.40
2024-03-02T09:45:32.873Z,14.40
2024-03-02T09:48:21.570Z,14.40
2024-03-02T09:51:09.297Z,14.40
2024-03-02T09:54:06.338Z,14.40
2024-03-02T09:57:02.805Z,14.40
2024-03-02T09:59:50.188Z,14.50
2024-03-02T10:02:37.470Z,14.60
2024-03-02T10:05:29.438Z,14.70
2024-03-02T10:08:16.792Z,14.80
2024-03-02T10:11:04.213Z,14.90
2024-03-02T10:13:53.001Z,14.90
2024-03-02T10:16:40.919Z,14.90
2024-03-02T10:19:28.117Z,14.90
2024-03-02T10:22:15.765Z,14.90
2024-03-02T10:27:52.381Z,15.10
2024-03-02T10:30:40.762Z,15.10
2024-03-02T10:33:27.899Z,15.20
2024-03-02T10:36:15.243Z,15.30
2024-03-02T10:39:05.056Z,15.40
2024-03-02T10:41:54.301Z,15.40
2024-03-02T10:44:41.334Z,15.50
2024-03-02T10:47:31.499Z,15.60
2024-03-02T10:50:19.825Z,15.70
2024-03-02T10:53:07.284Z,15.70
2024-03-02T10:55:59.759Z,15.60
2024-03-02T10:58:48.093Z,15.50
2024-03-02T11:01:37.940Z,15.40
2024-03-02T11:04:30.142Z,15.40
2024-03-02T11:07:21.121Z,15.40
2024-03-02T11:10:10.566Z,15.40
2024-03-02T11:13:03.566Z,15.40
2024-03-02T11:15:51.758Z,15.30
2024-03-02T11:18:43.285Z,15.10
2024-03-02T11:21:34.214Z,15.10
2024-03-02T11:24:37.227Z,15.10
2024-03-02T11:27:43.504Z,15.10
2024-03-02T11:30:49.251Z,15.20
2024-03-02T11:33:36.371Z,15.20
2024-03-02T11:36:23.705Z,15.30
2024-03-02T11:39:12.463Z,15.30
2024-03-02T11:42:08.735Z,15.40
2024-03-02T11:44:58.788Z,15.40
2024-03-02T11:47:48.702Z,15.40
2024-03-02T11:50:36.586Z,15.30
2024-03-02T11:53:24.302Z,15.30
2024-03-02T11:56:14.537Z,15.20
2024-03-02T11:59:02.500Z,15.20
2024-03-02T12:01:50.157Z,15.20
2024-03-02T12:04:41.606Z,15.20
2024-03-02T12:07:28.988Z,15.20
2024-03-02T12:10:17.161Z,15.20
2024-03-02T12:13:07.698Z,15.30
2024-03-02T12:15:55.702Z,15.30
2024-03-02T12:18:44.925Z,15.40
2024-03-02T12:21:31.985Z,15.40
2024-03-02T12:24:19.403Z,15.40
2024-03-02T12:27:08.016Z,15.50
2024-03-02T12:29:56.429Z,15.50
2024-03-02T12:32:43.894Z,15.60
2024-03-02T12:35:32.784Z,15.70
2024-03-02T12:38:20.727Z,15.70
2024-03-02T12:41:07.964Z,15.80
2024-03-02T12:43:55.980Z,15.90
2024-03-02T12:46:44.635Z,16.00
2024-03-02T12:49:31.993Z,16.00
2024-03-02T12:52:20.411Z,16.10
2024-03-02T12:55:08.244Z,16.10
2024-03-02T12:57:55.540Z,16.20
2024-03-02T13:00:42.701Z,16.00
2024-03-02T13:03:32.601Z,16.00
2024-03-02T13:06:20.065Z,16.00
2024-03-02T13:09:17.114Z,16.00
2024-03-02T13:12:05.831Z,16.00
2024-03-02T13:14:53.912Z,16.10
2024-03-02T13:17:41.131Z,16.10
2024-03-02T13:20:33.816Z,16.10
2024-03-02T13:23:21.462Z,16.10
2024-03-02T13:26:08.844Z,16.10
2024-03-02T13:28:55.858Z,16.00
2024-03-02T13:31:42.885Z,15.90
2024-03-02T13:34:30.228Z,15.90
2024-03-02T13:37:18.530Z,15.90
2024-03-02T13:40:06.355Z,15.90
2024-03-02T13:42:55.041Z,15.80
2024-03-02T13:45:42.382Z,15.70
2024-03-02T13:48:29.545Z,15.70
2024-03-02T13:51:16.864Z,15.60
2024-03-02T13:54:05.725Z,15.70
2024-03-02T13:56:52.824Z,15.60
2024-03-02T13:59:40.432Z,15.60
2024-03-02T14:02:27.689Z,15.50
2024-03-02T14:05:15.083Z,15.50
2024-03-02T14:08:02.621Z,15.40
2024-03-02T14:10:51.069Z,15.40
2024-03-02T14:13:37.995Z,15.30
2024-03-02T14:16:25.129Z,15.20
2024-03-02T14:19:12.654Z,15.10
2024-03-02T14:21:59.738Z,15.00
2024-03-02T14:24:47.683Z,15.00
2024-03-02T14:27:51.040Z,14.90
2024-03-02T14:30:44.400Z,14.80
2024-03-02T14:33:31.890Z,14.70
2024-03-02T14:36:19.340Z,14.70
2024-03-02T14:39:11.205Z,14.60
2024-03-02T14:41:58.899Z,14.50
2024-03-02T14:44:47.913Z,14.40
2024-03-02T14:47:36.551Z,14.30
2024-03-02T14:50:24.196Z,14.30
2024-03-02T14:53:11.410Z,14.20
2024-03-02T14:55:59.124Z,14.10
2024-03-02T14:58:46.793Z,14.00
2024-03-02T15:01:35.794Z,13.90
2024-03-02T15:04:23.918Z,13.90
2024-03-02T15:07:11.259Z,13.80
2024-03-02T15:09:58.572Z,13.70
2024-03-02T15:12:45.924Z,13.70
2024-03-02T15:15:33.542Z,13.60
2024-03-02T15:18:22.284Z,13.50
2024-03-02T15:21:09.336Z,13.50
2024-03-02T15:23:56.390Z,13.40
2024-03-02T15:26:44.196Z,13.30
2024-03-02T15:29:32.288Z,13.30
2024-03-02T15:32:19.783Z,13.20
2024-03-02T15:35:09.984Z,13.20
2024-03-02T15:37:57.081Z,13.10
2024-03-02T15:40:43.959Z,13.00
2024-03-02T15:43:32.058Z,13.00
2024-03-02T15:46:19.036Z,12.90
2024-03-02T15:49:09.017Z,12.90
2024-03-02T15:52:01.294Z,12.90
2024-03-02T15:54:48.682Z,12.80
2024-03-02T15:57:37.750Z,12.80
2024-03-02T16:00:25.194Z,12.70
2024-03-02T16:03:12.558Z,12.70
2024-03-02T16:06:02.606Z,12.60
2024-03-02T16:08:52.330Z,12.60
2024-03-02T16:11:40.108Z,12.50
2024-03-02T16:14:27.098Z,12.50
2024-03-02T16:17:14.397Z,12.40
2024-03-02T16:20:01.397Z,12.40
2024-03-02T16:22:48.775Z,12.30
2024-03-02T16:25:38.380Z,12.20
2024-03-02T16:28:25.305Z,12.20
2024-03-02T16:31:14.196Z,12.10
2024-03-02T16:34:01.719Z,12.10
2024-03-02T16:36:49.151Z,12.00
2024-03-02T16:39:39.582Z,11.90
2024-03-02T16:42:28.147Z,11.90
2024-03-02T16:45:15.409Z,11.90
2024-03-02T16:48:02.857Z,11.80
2024-03-02T16:50:50.636Z,11.80
2024-03-02T16:53:38.167Z,11.80
2024-03-02T16:56:25.768Z,11.70
2024-03-02T16:59:14.649Z,11.70
2024-03-02T17:02:01.925Z,11.80
2024-03-02T17:04:49.343Z,11.80
2024-03-02T17:07:36.724Z,11.70
2024-03-02T17:10:24.133Z,11.70
2024-03-02T17:13:11.335Z,11.70
2024-03-02T17:16:00.158Z,11.60
2024-03-02T17:18:47.769Z,11.60
2024-03-02T17:21:35.285Z,11.50
2024-03-02T17:24:22.565Z,11.40
2024-03-02T17:27:10.324Z,11.40
2024-03-02T17:29:58.056Z,11.30
2024-03-02T17:32:46.742Z,11.20
2024-03-02T17:35:36.099Z,11.20
2024-03-02T17:38:23.431Z,11.10
2024-03-02T17:41:11.723Z,11.10
2024-03-02T17:43:59.068Z,11.00
2024-03-02T17:46:46.529Z,10.90
2024-03-02T17:49:35.443Z,10.90
2024-03-02T17:52:22.644Z,10.90
2024-03-02T17:55:10.531Z,10.80
2024-03-02T17:57:58.625Z,10.80
2024-03-02T18:00:47.562Z,10.70
2024-03-02T18:03:35.291Z,10.70
2024-03-02T18:06:25.855Z,10.60
2024-03-02T18:09:14.549Z,10.60
2024-03-02T18:12:04.606Z,10.50
2024-03-02T18:14:51.956Z,10.50
2024-03-02T18:17:40.114Z,10.50
2024-03-02T18:20:27.637Z,10.50
2024-03-02T18:23:16.597Z,10.50
2024-03-02T18:26:03.984Z,10.50
2024-03-02T18:28:51.330Z,10.50
2024-03-02T18:31:38.762Z,10.50
2024-03-02T18:34:26.445Z,10.50
2024-03-02T18:37:14.704Z,10.50
2024-03-02T18:40:06.888Z,10.60
2024-03-02T18:42:56.152Z,10.60
2024-03-02T18:45:49.493Z,10.70
2024-03-02T18:48:37.707Z,10.70
2024-03-02T18:51:26.793Z,10.70
2024-03-02T18:54:17.566Z,10.70
2024-03-02T18:57:07.525Z,10.60
2024-03-02T18:59:56.297Z,10.60
2024-03-02T19:02:49.600Z,10.50
2024-03-02T19:05:40.001Z,10.50
2024-03-02T19:08:28.249Z,10.40
2024-03-02T19:11:16.136Z,10.40
2024-03-02T19:14:04.732Z,10.40
2024-03-02T19:16:52.135Z,10.40
2024-03-02T19:19:40.763Z,10.30
2024-03-02T19:22:29.488Z,10.30
2024-03-02T19:25:17.217Z,10.30
2024-03-02T19:28:05.888Z,10.30
2024-03-02T19:30:56.073Z,10.30
2024-03-02T19:33:46.263Z,10.30
2024-03-02T19:36:35.235Z,10.30
2024-03-02T19:39:27.435Z,10.40
2024-03-02T19:42:14.906Z,10.40
2024-03-02T19:45:02.499Z,10.40
2024-03-02T19:47:51.257Z,10.50
2024-03-02T19:50:40.918Z,10.50
2024-03-02T19:53:28.643Z,10.40
2024-03-02T19:56:20.486Z,10.50
2024-03-02T19:59:11.453Z,10.40
2024-03-02T20:01:59.161Z,10.40
2024-03-02T20:04:48.639Z,10.30
2024-03-02T20:07:36.945Z,10.30
2024-03-02T20:10:24.556Z,10.20
2024-03-02T20:13:11.928Z,10.20
2024-03-02T20:16:00.269Z,10.20
2024-03-02T20:18:47.827Z,10.20
2024-03-02T20:21:36.520Z,10.20
2024-03-02T20:24:24.828Z,10.10
2024-03-02T20:27:12.209Z,10.10
2024-03-02T20:29:59.755Z,10.20
2024-03-02T20:32:47.216Z,10.20
2024-03-02T20:35:34.753Z,10.20
2024-03-02T20:38:23.484Z,10.30
2024-03-02T20:41:16.526Z,10.30
2024-03-02T20:44:03.981Z,10.30
2024-03-02T20:46:51.604Z,10.40
2024-03-02T20:49:43.425Z,10.40
2024-03-02T20:52:31.543Z,10.40
2024-03-02T20:55:20.207Z,10.40
2024-03-02T20:58:07.434Z,10.40
2024-03-02T21:00:55.851Z,10.50
2024-03-02T21:03:45.311Z,10.40
2024-03-02T21:06:32.585Z,10.50
2024-03-02T21:09:20.187Z,10.50
2024-03-02T21:12:09.844Z,10.50
2024-03-02T21:14:57.499Z,10.50
2024-03-02T21:17:45.115Z,10.50
2024-03-02T21:20:32.247Z,10.50
2024-03-02T21:23:20.124Z,10.50
2024-03-02T21:26:07.570Z,10.50
2024-03-02T21:28:56.233Z,10.50
2024-03-02T21:31:43.676Z,10.50
2024-03-02T21:34:31.178Z,10.50
2024-03-02T21:37:18.768Z,10.50
2024-03-02T21:40:07.163Z,10.50
2024-03-02T21:42:55.054Z,10.50
2024-03-02T21:45:44.198Z,10.50
2024-03-02T21:48:31.818Z,10.40
2024-03-02T21:51:19.624Z,10.40
2024-03-02T21:54:07.373Z,10.40
2024-03-02T21:56:54.495Z,10.40
2024-03-02T21:59:42.612Z,10.30
2024-03-02T22:02:31.139Z,10.30
2024-03-02T22:05:18.435Z,10.30
2024-03-02T22:08:06.239Z,10.30
2024-03-02T22:10:53.971Z,10.20
2024-03-02T22:13:41.178Z,10.20
2024-03-02T22:16:28.328Z,10.20
2024-03-02T22:19:17.018Z,10.20
2024-03-02T22:22:04.401Z,10.20
2024-03-02T22:24:51.619Z,10.20
2024-03-02T22:27:41.990Z,10.20
2024-03-02T22:30:30.280Z,10.20
2024-03-02T22:33:17.505Z,10.20
2024-03-02T22:36:08.723Z,10.20
2024-03-02T22:38:56.183Z,10.20
2024-03-02T22:41:43.530Z,10.10
2024-03-02T22:44:33.058Z,10.10
2024-03-02T22:47:20.742Z,10.10
2024-03-02T22:50:09.554Z,10.00
2024-03-02T22:52:58.227Z,10.00
2024-03-02T22:55:46.025Z,10.00
2024-03-02T22:58:33.844Z,10.00
2024-03-02T23:01:22.535Z,10.00
2024-03-02T23:04:10.313Z,10.00
2024-03-02T23:06:57.776Z,10.00
2024-03-02T23:09:46.685Z,10.10
2024-03-02T23:12:34.296Z,10.10
2024-03-02T23:15:21.606Z,10.10
2024-03-02T23:18:09.217Z,10.10
2024-03-02T23:20:56.718Z,10.10
2024-03-02T23:23:44.318Z,10.10
2024-03-02T23:26:33.066Z,10.10
2024-03-02T23:29:20.368Z,10.10
2024-03-02T23:32:08.198Z,10.20
2024-03-02T23:34:55.325Z,10.20
2024-03-02T23:37:42.699Z,10.20
2024-03-02T23:40:53.401Z,10.20
2024-03-02T23:43:42.161Z,10.20
2024-03-02T23:46:30.065Z,10.20
2024-03-02T23:49:17.621Z,10.20
2024-03-02T23:52:04.922Z,10.20
2024-03-02T23:54:52.645Z,10.10
2024-03-02T23:57:40.659Z,10.10
